Time;durP1;ratioP1;P1;durP2;ratioP2;P2;SDS_P1;SDS_P2;PMS_P1;PMS_P2;Temp;Humidity;BMP_temperature;BMP_pressure;BME280_temperature;BME280_humidity;BME280_pressure;Samples;Min_cycle;Max_cycle;Signal;HPM_P1;HPM_P2
2022/05/04 00:00:13;;;;;;;11.27;5.35;;;;;;;8.73;70.65;101902.63;5091265;28;20059;-72
2022/05/04 00:02:40;;;;;;;13.40;5.05;;;;;;;8.71;70.49;101901.78;5080348;28;20040;-72
2022/05/04 00:05:06;;;;;;;9.88;4.97;;;;;;;8.68;71.34;101913.03;5089375;28;20063;-72
2022/05/04 00:07:32;;;;;;;13.48;5.28;;;;;;;8.62;71.09;101908.69;5080896;28;20388;-72
2022/05/04 00:09:58;;;;;;;12.30;5.32;;;;;;;8.53;71.83;101908.66;5086271;28;20024;-72
2022/05/04 00:12:24;;;;;;;12.32;5.50;;;;;;;8.51;71.25;101905.22;5082211;28;20035;-72
2022/05/04 00:14:50;;;;;;;11.45;5.15;;;;;;;8.49;71.85;101906.91;5090229;28;20051;-72
2022/05/04 00:17:15;;;;;;;12.82;4.90;;;;;;;8.39;71.48;101905.16;5090662;28;20417;-72
2022/05/04 00:19:40;;;;;;;14.88;5.43;;;;;;;8.31;71.69;101907.72;5085479;28;20086;-72
2022/05/04 00:22:06;;;;;;;13.82;5.30;;;;;;;8.31;72.20;101912.94;5083666;28;20028;-72
2022/05/04 00:24:31;;;;;;;11.43;5.03;;;;;;;8.28;72.21;101912.06;5085171;28;20059;-72
2022/05/04 00:26:56;;;;;;;10.40;5.22;;;;;;;8.20;72.26;101914.59;5081607;28;20488;-72
2022/05/04 00:29:21;;;;;;;13.90;6.00;;;;;;;8.15;73.20;101909.41;5091150;28;20032;-72
2022/05/04 00:31:47;;;;;;;12.23;6.18;;;;;;;8.04;72.60;101905.88;5091726;28;20021;-72
2022/05/04 00:34:12;;;;;;;14.00;6.15;;;;;;;8.03;73.05;101911.09;5090216;28;20349;-72
2022/05/04 00:36:37;;;;;;;11.15;5.53;;;;;;;8.04;73.35;101908.47;5084702;28;20029;-72
2022/05/04 00:39:02;;;;;;;12.05;6.82;;;;;;;8.08;74.25;101909.38;5081406;28;20044;-72
2022/05/04 00:41:28;;;;;;;12.68;5.32;;;;;;;8.10;73.78;101905.91;5092520;28;20024;-72
2022/05/04 00:43:54;;;;;;;12.13;5.85;;;;;;;8.14;73.43;101910.28;5079543;28;20045;-72
2022/05/04 00:46:20;;;;;;;10.82;5.88;;;;;;;8.16;73.65;101908.53;5087807;28;20035;-72
2022/05/04 00:48:46;;;;;;;13.18;5.97;;;;;;;8.16;73.07;101889.47;5088000;28;20028;-72
2022/05/04 00:51:11;;;;;;;14.05;5.32;;;;;;;8.30;73.74;101899.91;5089336;28;20491;-72
2022/05/04 00:53:38;;;;;;;15.77;6.10;;;;;;;8.31;72.93;101901.66;5087546;28;20016;-72
2022/05/04 00:56:04;;;;;;;13.20;5.95;;;;;;;8.36;73.04;101899.94;5086400;28;20189;-72
2022/05/04 01:01:16;;;;;;;17.92;6.35;;;;;;;8.45;73.38;101902.59;5087003;28;20043;-72
2022/05/04 01:03:41;;;;;;;15.07;6.07;;;;;;;8.46;72.52;101896.53;5089934;28;20032;-72
2022/05/04 01:06:07;;;;;;;12.88;5.95;;;;;;;8.51;73.20;101900.00;5091867;28;20027;-72
2022/05/04 01:08:32;;;;;;;13.05;6.85;;;;;;;8.58;71.87;101898.28;5087784;28;20044;-72
2022/05/04 01:10:57;;;;;;;16.75;6.25;;;;;;;8.67;72.46;101891.38;5091541;28;20379;-72
2022/05/04 01:13:23;;;;;;;10.88;6.32;;;;;;;8.72;72.74;101887.91;5089164;28;20039;-72
2022/05/04 01:15:49;;;;;;;13.55;6.63;;;;;;;8.80;72.55;101887.06;5083776;28;20383;-72
2022/05/04 01:18:14;;;;;;;11.25;5.95;;;;;;;8.77;71.61;101894.84;5086293;28;20167;-72
2022/05/04 01:20:40;;;;;;;11.68;6.20;;;;;;;8.84;71.76;101888.78;5070972;28;20116;-72
2022/05/04 01:23:05;;;;;;;15.13;6.30;;;;;;;8.91;71.63;101897.44;5087150;28;20032;-72
2022/05/04 01:25:30;;;;;;;11.32;6.63;;;;;;;8.95;71.83;101896.56;5088302;28;21031;-72
2022/05/04 01:27:56;;;;;;;13.27;6.60;;;;;;;8.96;71.81;101893.13;5080405;28;20029;-72
2022/05/04 01:30:22;;;;;;;11.85;6.13;;;;;;;8.95;71.30;101895.72;5091011;28;20471;-72
2022/05/04 01:32:47;;;;;;;10.07;6.00;;;;;;;9.00;71.65;101897.47;5083898;28;20028;-72
2022/05/04 01:35:14;;;;;;;14.48;5.55;;;;;;;8.96;70.87;101893.13;5082849;28;20032;-72
2022/05/04 01:37:39;;;;;;;11.98;5.80;;;;;;;8.91;70.80;101885.31;5085619;28;20571;-72
2022/05/04 01:40:05;;;;;;;15.15;6.40;;;;;;;8.93;70.24;101893.13;5090155;28;20028;-72
2022/05/04 01:42:30;;;;;;;13.73;6.00;;;;;;;8.91;71.92;101897.44;5091574;28;20069;-72
2022/05/04 01:44:56;;;;;;;13.95;5.43;;;;;;;8.94;71.44;101899.19;5093653;28;20459;-72
2022/05/04 01:47:21;;;;;;;15.10;6.10;;;;;;;8.96;71.82;101893.13;5090596;28;20028;-72
2022/05/04 01:49:47;;;;;;;14.05;6.13;;;;;;;8.97;71.90;101900.06;5094486;28;20042;-72
2022/05/04 01:52:12;;;;;;;11.38;5.90;;;;;;;8.95;70.94;101890.50;5094153;28;20028;-72
2022/05/04 01:54:37;;;;;;;10.93;5.53;;;;;;;8.94;70.52;101894.00;5093646;28;20047;-72
2022/05/04 01:57:03;;;;;;;14.35;7.10;;;;;;;8.97;71.46;101891.38;5083923;28;20043;-72
2022/05/04 01:59:28;;;;;;;9.82;5.80;;;;;;;8.95;70.42;101893.97;5092833;28;20032;-72
2022/05/04 02:01:54;;;;;;;17.05;6.03;;;;;;;8.93;70.77;101881.81;5094526;28;20099;-72
2022/05/04 02:04:20;;;;;;;12.45;5.25;;;;;;;8.91;70.27;101887.91;5093027;28;20131;-72
2022/05/04 02:06:45;;;;;;;15.07;6.38;;;;;;;8.89;70.25;101888.75;5093214;28;20050;-72
2022/05/04 02:09:11;;;;;;;13.93;5.88;;;;;;;8.87;71.26;101877.50;5095311;28;20038;-72
2022/05/04 02:11:37;;;;;;;12.07;5.78;;;;;;;8.87;71.73;101890.53;5091808;28;20039;-72
2022/05/04 02:14:03;;;;;;;12.63;6.03;;;;;;;8.88;71.58;101884.44;5093605;28;20031;-72
2022/05/04 02:16:29;;;;;;;9.95;5.60;;;;;;;8.90;71.32;101882.72;5094522;28;20032;-72
2022/05/04 02:18:55;;;;;;;12.32;5.50;;;;;;;8.89;70.99;101891.38;5092894;28;20028;-72
2022/05/04 02:21:21;;;;;;;13.40;6.13;;;;;;;8.91;70.72;101884.44;5075427;28;20464;-72
2022/05/04 02:23:46;;;;;;;10.85;6.00;;;;;;;8.96;71.64;101881.81;5077911;28;20035;-71
2022/05/04 02:26:11;;;;;;;13.35;5.65;;;;;;;8.91;70.77;101882.69;5077640;28;20024;-72
2022/05/04 02:28:37;;;;;;;14.88;5.65;;;;;;;8.92;70.98;101880.97;5092544;28;20024;-72
2022/05/04 02:31:03;;;;;;;13.32;5.68;;;;;;;8.86;70.01;101876.66;5090464;28;20077;-72
2022/05/04 02:33:28;;;;;;;11.25;5.57;;;;;;;8.86;70.97;101880.97;5092018;28;20081;-72
2022/05/04 02:38:37;;;;;;;13.80;6.20;;;;;;;8.76;71.57;101874.88;5091095;28;20502;-72
2022/05/04 02:41:03;;;;;;;11.82;5.47;;;;;;;8.78;71.74;101873.16;5093026;28;20036;-72
2022/05/04 02:43:28;;;;;;;15.20;6.50;;;;;;;8.76;71.62;101880.09;5094001;28;20032;-72
2022/05/04 02:45:55;;;;;;;14.18;5.53;;;;;;;8.74;72.02;101886.19;5092797;28;20548;-72
2022/05/04 02:48:20;;;;;;;13.88;6.07;;;;;;;8.67;71.97;101875.78;5089205;28;20066;-72
2022/05/04 02:50:46;;;;;;;12.45;5.60;;;;;;;8.67;71.96;101872.31;5093062;28;20463;-72
2022/05/04 02:53:11;;;;;;;9.05;5.85;;;;;;;8.67;71.69;101867.97;5087982;28;20016;-72
2022/05/04 02:55:37;;;;;;;15.73;6.10;;;;;;;8.63;71.32;101868.84;5090965;28;20071;-72
2022/05/04 02:58:02;;;;;;;18.83;5.90;;;;;;;8.61;71.72;101867.97;5087259;28;20048;-72
2022/05/04 03:00:28;;;;;;;14.20;5.60;;;;;;;8.62;71.26;101867.09;5090616;28;20043;-72
2022/05/04 03:02:54;;;;;;;16.50;5.80;;;;;;;8.60;71.52;101860.16;5093350;28;20483;-72
2022/05/04 03:05:20;;;;;;;11.85;5.22;;;;;;;8.57;71.52;101861.03;5090342;28;20028;-72
2022/05/04 03:07:46;;;;;;;14.98;5.95;;;;;;;8.55;71.90;101856.69;5089838;28;20067;-72
2022/05/04 03:10:13;;;;;;;13.98;5.55;;;;;;;8.52;71.90;101862.75;5092385;28;20113;-72
2022/05/04 03:12:39;;;;;;;13.25;5.85;;;;;;;8.49;71.35;101854.09;5081858;28;20468;-71
2022/05/04 03:15:04;;;;;;;13.65;5.75;;;;;;;8.50;72.31;101861.00;5080886;28;20099;-72
2022/05/04 03:17:30;;;;;;;14.98;5.43;;;;;;;8.50;72.28;101861.91;5092358;28;20116;-72
2022/05/04 03:19:55;;;;;;;17.42;6.50;;;;;;;8.41;72.36;101862.75;5090442;28;20024;-72
2022/05/04 03:22:20;;;;;;;11.23;5.30;;;;;;;8.40;72.47;101860.13;5083081;28;20066;-72
2022/05/04 03:24:46;;;;;;;11.95;5.95;;;;;;;8.39;72.94;101858.41;5090913;28;20053;-72
2022/05/04 03:27:11;;;;;;;14.15;6.05;;;;;;;8.43;72.63;101854.94;5091285;28;20027;-72
2022/05/04 03:29:37;;;;;;;13.38;5.35;;;;;;;8.41;72.08;101851.47;5092615;28;20036;-72
2022/05/04 03:32:03;;;;;;;10.05;5.22;;;;;;;8.39;72.25;101848.00;5091967;28;20034;-72
2022/05/04 03:34:29;;;;;;;14.70;5.70;;;;;;;8.36;72.66;101842.78;5091554;28;20024;-72
2022/05/04 03:36:54;;;;;;;15.50;5.90;;;;;;;8.26;71.64;101856.59;5092768;28;20115;-72
2022/05/04 03:39:20;;;;;;;12.55;5.55;;;;;;;8.17;71.86;101853.13;5089207;28;20525;-72
2022/05/04 03:41:45;;;;;;;14.65;5.72;;;;;;;8.08;71.72;101860.03;5088446;28;20032;-72
2022/05/04 03:44:11;;;;;;;17.33;5.90;;;;;;;8.02;72.85;101860.88;5089683;28;20028;-72
2022/05/04 03:46:47;;;;;;;13.38;5.40;;;;;;;8.03;73.03;101862.59;5091162;28;20028;-72
2022/05/04 03:49:15;;;;;;;14.13;5.32;;;;;;;8.02;73.66;101860.88;5086044;28;20364;-72
2022/05/04 03:51:41;;;;;;;13.52;5.60;;;;;;;8.04;73.72;101861.72;5090594;28;20393;-72
2022/05/04 03:54:07;;;;;;;12.27;5.70;;;;;;;8.04;73.03;101866.91;5080359;28;20017;-72
2022/05/04 03:56:33;;;;;;;15.02;5.35;;;;;;;8.05;74.36;101863.50;5088622;28;20044;-72
2022/05/04 03:58:59;;;;;;;12.15;5.93;;;;;;;8.01;73.78;101853.06;5088928;28;20447;-72
2022/05/04 04:01:24;;;;;;;12.77;6.05;;;;;;;7.97;73.67;101860.84;5088785;28;20111;-72
2022/05/04 04:03:49;;;;;;;15.55;5.80;;;;;;;7.89;74.36;101857.38;5091654;28;20038;-72
2022/05/04 04:06:15;;;;;;;15.43;5.80;;;;;;;7.83;74.67;101864.25;5088203;28;20391;-72
2022/05/04 04:08:41;;;;;;;13.55;5.95;;;;;;;7.81;75.09;101860.78;5092140;28;20012;-72
2022/05/04 04:11:06;;;;;;;12.52;5.95;;;;;;;7.76;74.81;101857.31;5090874;28;20028;-72
2022/05/04 04:13:31;;;;;;;11.00;6.53;;;;;;;7.66;75.04;101859.00;5091677;28;20020;-72
2022/05/04 04:15:57;;;;;;;13.95;5.90;;;;;;;7.59;74.52;101859.84;5089846;28;20043;-72
2022/05/04 04:18:24;;;;;;;17.20;6.53;;;;;;;7.56;74.68;101863.28;5082497;28;20027;-72
2022/05/04 04:23:34;;;;;;;15.82;5.88;;;;;;;7.51;75.89;101863.22;5082373;28;20070;-72
2022/05/04 04:26:01;;;;;;;15.85;6.75;;;;;;;7.43;76.26;101866.66;5084301;28;20028;-72
2022/05/04 04:28:27;;;;;;;13.32;5.82;;;;;;;7.41;76.43;101860.59;5091099;28;20038;-71
2022/05/04 04:30:52;;;;;;;15.02;6.53;;;;;;;7.33;76.21;101865.75;5091354;28;20028;-72
2022/05/04 04:33:18;;;;;;;17.05;6.95;;;;;;;7.33;76.68;101864.88;5082813;28;20020;-72
2022/05/04 04:35:43;;;;;;;10.85;6.05;;;;;;;7.27;76.51;101861.38;5070846;28;20365;-72
2022/05/04 04:38:08;;;;;;;16.25;6.43;;;;;;;7.27;77.05;101865.69;5083711;28;20036;-72
2022/05/04 04:40:34;;;;;;;18.80;6.22;;;;;;;7.31;77.05;101869.19;5091303;28;20035;-72
2022/05/04 04:43:02;;;;;;;14.15;6.13;;;;;;;7.33;77.31;101877.84;5090543;28;20036;-72
2022/05/04 04:45:28;;;;;;;13.77;6.28;;;;;;;7.26;77.18;101866.56;5091078;28;20063;-72
2022/05/04 04:47:54;;;;;;;11.20;5.72;;;;;;;7.26;77.44;101870.03;5090070;28;20083;-72
2022/05/04 04:50:19;;;;;;;17.42;6.60;;;;;;;7.29;76.84;101874.34;5083918;28;20052;-72
2022/05/04 04:52:45;;;;;;;16.92;5.95;;;;;;;7.27;76.54;101866.56;5087988;28;20067;-71
2022/05/04 04:55:11;;;;;;;20.20;6.85;;;;;;;7.28;76.90;101873.47;5082655;28;20028;-72
2022/05/04 04:57:37;;;;;;;15.50;6.85;;;;;;;7.29;77.32;101866.56;5090968;28;20110;-72
2022/05/04 05:00:04;;;;;;;16.48;6.70;;;;;;;7.24;77.35;101870.88;5090038;28;20042;-72
2022/05/04 05:02:29;;;;;;;17.80;6.88;;;;;;;7.19;77.40;101869.94;5090534;28;20081;-72
2022/05/04 05:04:54;;;;;;;18.30;6.97;;;;;;;7.15;77.26;101865.59;5089027;28;20021;-71
2022/05/04 05:07:20;;;;;;;15.57;6.90;;;;;;;7.07;77.57;101873.34;5088435;28;20020;-71
2022/05/04 05:09:45;;;;;;;16.25;7.10;;;;;;;7.04;77.83;101871.59;5090172;28;20028;-71
2022/05/04 05:12:11;;;;;;;16.63;6.95;;;;;;;7.07;77.66;101880.25;5091320;28;20032;-72
2022/05/04 05:17:20;;;;;;;15.52;6.47;;;;;;;7.17;77.95;101876.88;5081770;28;20043;-71
2022/05/04 05:19:45;;;;;;;18.25;6.75;;;;;;;7.21;77.71;101878.63;5079010;28;20098;-71
2022/05/04 05:22:10;;;;;;;15.30;7.18;;;;;;;7.21;77.36;101886.41;5080099;28;20027;-72
2022/05/04 05:24:36;;;;;;;14.60;6.38;;;;;;;7.25;77.64;101883.81;5075210;28;20077;-72
2022/05/04 05:27:01;;;;;;;12.02;6.28;;;;;;;7.33;77.97;101890.81;5089628;28;20028;-71
2022/05/04 05:29:26;;;;;;;16.58;7.07;;;;;;;7.36;77.68;101881.31;5091991;28;20037;-71
2022/05/04 05:31:51;;;;;;;20.95;7.32;;;;;;;7.39;77.76;101872.66;5086117;28;20024;-72
2022/05/04 05:34:17;;;;;;;17.30;6.80;;;;;;;7.52;77.18;101884.88;5089565;28;20039;-72
2022/05/04 05:36:42;;;;;;;16.13;6.93;;;;;;;7.55;76.39;101869.31;5081470;28;20368;-72
2022/05/04 05:39:08;;;;;;;16.35;6.38;;;;;;;7.56;75.58;101878.84;5090076;28;20388;-72
2022/05/04 05:41:33;;;;;;;18.05;6.10;;;;;;;7.61;75.50;101874.53;5088184;28;20161;-71
2022/05/04 05:43:58;;;;;;;15.02;6.88;;;;;;;7.65;75.21;101880.59;5088060;28;20028;-72
2022/05/04 05:46:23;;;;;;;19.48;6.63;;;;;;;7.67;75.07;101873.69;5086299;28;20033;-71
2022/05/04 05:48:49;;;;;;;20.33;6.70;;;;;;;7.69;75.18;101883.25;5088363;28;20414;-71
2022/05/04 05:51:14;;;;;;;15.40;6.97;;;;;;;7.77;75.88;101872.03;5079353;28;20028;-71
2022/05/04 05:53:40;;;;;;;19.40;6.95;;;;;;;7.80;74.99;101870.31;5085396;28;20020;-71
2022/05/04 05:56:05;;;;;;;16.27;6.72;;;;;;;7.94;75.95;101883.34;5091368;28;20120;-72
2022/05/04 05:58:30;;;;;;;12.02;6.20;;;;;;;7.98;74.68;101879.91;5083380;28;20021;-71
2022/05/04 06:00:56;;;;;;;19.17;6.88;;;;;;;8.04;74.68;101872.13;5078641;28;20030;-71
2022/05/04 06:03:22;;;;;;;21.38;6.80;;;;;;;8.04;74.19;101869.53;5091370;28;20036;-72
2022/05/04 06:05:47;;;;;;;16.98;6.32;;;;;;;8.18;73.26;101883.44;5090572;28;20020;-82
2022/05/04 06:08:12;;;;;;;16.77;6.80;;;;;;;8.23;73.13;101882.56;5077984;28;20028;-72
2022/05/04 06:10:38;;;;;;;20.35;7.30;;;;;;;8.29;73.08;101886.06;5079040;28;20547;-72
2022/05/04 06:13:04;;;;;;;16.45;6.82;;;;;;;8.37;72.27;101880.88;5076686;28;20025;-71
2022/05/04 06:15:30;;;;;;;17.95;6.18;;;;;;;8.45;72.02;101884.41;5080426;28;20482;-71
2022/05/04 06:17:55;;;;;;;16.05;6.47;;;;;;;8.49;71.71;101886.13;5073957;28;20028;-71
2022/05/04 06:20:22;;;;;;;21.20;7.22;;;;;;;8.55;71.89;101888.75;5069870;28;20547;-72
2022/05/04 06:22:47;;;;;;;17.40;6.88;;;;;;;8.62;72.50;101892.22;5089002;28;20043;-71
2022/05/04 06:25:13;;;;;;;15.98;6.85;;;;;;;8.65;72.19;101890.50;5091230;28;20028;-72
2022/05/04 06:27:38;;;;;;;14.43;6.82;;;;;;;8.70;71.52;101889.63;5084078;28;20023;-71
2022/05/04 06:35:31;;;;;;;;;;;;;;;8.86;70.80;101899.16;5094809;28;20093;-70
2022/05/04 06:37:57;;;;;;;14.63;6.23;;;;;;;8.94;70.83;101896.59;5076277;28;19920;-71
2022/05/04 06:40:22;;;;;;;14.85;6.82;;;;;;;9.12;71.34;101894.84;5074486;28;20440;-71
2022/05/04 06:42:47;;;;;;;21.50;6.88;;;;;;;9.28;70.21;101892.22;5073415;28;20079;-72
2022/05/04 06:45:13;;;;;;;17.58;6.25;;;;;;;9.44;69.33;101906.06;5085190;28;20047;-70
2022/05/04 06:47:38;;;;;;;16.25;6.32;;;;;;;9.53;69.42;101903.47;5074755;28;20384;-72
2022/05/04 06:50:04;;;;;;;19.08;7.13;;;;;;;9.69;68.33;101905.16;5083507;28;20025;-72
2022/05/04 06:52:31;;;;;;;12.90;5.57;;;;;;;9.83;65.86;101911.19;5074080;28;20450;-72
2022/05/04 06:54:56;;;;;;;19.52;6.00;;;;;;;9.92;64.69;101904.22;5080704;28;20551;-71
2022/05/04 06:57:21;;;;;;;23.10;6.38;;;;;;;10.06;66.22;101899.81;5076897;28;20051;-73
2022/05/04 06:59:47;;;;;;;18.05;6.13;;;;;;;10.17;66.27;101900.63;5087415;28;20028;-72
2022/05/04 07:02:13;;;;;;;16.40;6.25;;;;;;;10.23;64.80;101904.94;5081913;28;20460;-72
2022/05/04 07:04:38;;;;;;;18.23;6.60;;;;;;;10.17;64.56;101894.53;5072040;28;20033;-71
2022/05/04 07:07:04;;;;;;;20.67;5.78;;;;;;;10.11;65.53;101890.25;5073132;28;20031;-72
2022/05/04 07:09:29;;;;;;;14.23;5.47;;;;;;;10.08;65.82;101895.47;5072288;28;20590;-72
2022/05/04 07:11:54;;;;;;;13.63;5.80;;;;;;;10.09;65.44;101898.03;5074578;28;20610;-72
2022/05/04 07:14:19;;;;;;;13.25;6.20;;;;;;;10.08;64.05;101892.84;5074824;28;20029;-72
2022/05/04 07:16:45;;;;;;;18.83;7.00;;;;;;;10.03;64.75;101895.47;5073735;28;20030;-72
2022/05/04 07:19:10;;;;;;;16.08;6.47;;;;;;;10.06;64.74;101902.41;5075013;28;20021;-73
2022/05/04 07:21:35;;;;;;;15.95;6.38;;;;;;;9.96;64.76;101880.75;5074732;28;20021;-72
2022/05/04 07:24:01;;;;;;;13.32;6.40;;;;;;;10.06;64.76;101889.38;5073773;28;20038;-72
2022/05/04 07:26:26;;;;;;;14.65;7.18;;;;;;;10.09;64.72;101884.16;5074610;28;20051;-72
2022/05/04 07:28:51;;;;;;;19.92;5.88;;;;;;;10.13;64.71;101883.25;5074307;28;20052;-72
2022/05/04 07:31:16;;;;;;;14.57;6.25;;;;;;;10.23;64.77;101894.50;5073659;28;20031;-72
2022/05/04 07:33:42;;;;;;;13.50;5.65;;;;;;;10.27;63.12;101880.66;5074399;28;20029;-72
2022/05/04 07:36:07;;;;;;;14.07;5.78;;;;;;;10.32;63.59;101884.94;5074611;28;20048;-72
2022/05/04 07:38:32;;;;;;;11.82;5.95;;;;;;;10.36;64.20;101883.16;5073282;28;20082;-72
2022/05/04 07:43:41;;;;;;;20.73;6.75;;;;;;;10.43;62.53;101884.88;5074076;28;20049;-72
2022/05/04 07:46:07;;;;;;;15.50;6.40;;;;;;;10.48;62.10;101880.50;5073386;28;20032;-72
2022/05/04 07:48:32;;;;;;;14.02;6.38;;;;;;;10.62;62.53;101887.34;5074104;28;20417;-72
2022/05/04 07:50:57;;;;;;;12.38;6.20;;;;;;;10.70;62.91;101890.78;5073527;28;20020;-72
2022/05/04 07:53:23;;;;;;;12.27;6.63;;;;;;;10.79;62.35;101890.72;5074300;28;20450;-72
2022/05/04 07:55:48;;;;;;;14.43;6.70;;;;;;;10.84;60.60;101891.53;5073395;28;20037;-72
2022/05/04 07:58:13;;;;;;;13.98;6.28;;;;;;;10.95;61.88;101894.06;5073059;28;20075;-72
2022/05/04 08:06:06;;;;;;;17.73;7.72;;;;;;;11.12;62.72;101900.03;5073548;28;20279;-72
2022/05/04 08:08:32;;;;;;;15.63;7.60;;;;;;;11.21;60.67;101897.28;5073633;28;20028;-72
2022/05/04 08:10:57;;;;;;;16.63;7.07;;;;;;;11.28;60.66;101903.34;5073623;28;20446;-72
2022/05/04 08:13:23;;;;;;;14.75;7.32;;;;;;;11.40;60.71;101902.34;5072829;28;20021;-72
2022/05/04 08:15:48;;;;;;;13.98;8.25;;;;;;;11.39;60.37;101893.66;5073272;28;20069;-72
2022/05/04 08:18:13;;;;;;;15.50;7.38;;;;;;;11.55;60.21;101898.75;5073429;28;20115;-72
2022/05/04 08:20:39;;;;;;;16.58;8.27;;;;;;;11.65;59.73;101896.00;5072434;28;20102;-72
2022/05/04 08:23:04;;;;;;;17.52;8.07;;;;;;;11.67;58.37;101891.63;5073539;28;20064;-72
2022/05/04 08:25:31;;;;;;;16.30;7.95;;;;;;;11.73;58.78;101893.28;5073379;28;20460;-72
2022/05/04 08:27:56;;;;;;;13.93;7.72;;;;;;;11.72;58.41;101888.97;5072505;28;20016;-72
2022/05/04 08:30:23;;;;;;;14.73;7.68;;;;;;;11.76;57.05;101892.41;5073508;28;20606;-72
2022/05/04 08:32:49;;;;;;;13.43;7.75;;;;;;;11.80;58.29;101889.72;5073091;28;20029;-72
2022/05/04 08:35:15;;;;;;;15.30;7.53;;;;;;;11.91;59.51;101900.09;5072612;28;20024;-72
2022/05/04 08:37:41;;;;;;;18.58;7.50;;;;;;;12.04;58.33;101900.81;5073030;28;20024;-72
2022/05/04 08:40:08;;;;;;;12.43;7.78;;;;;;;12.14;58.35;101891.97;5072895;28;20025;-72
2022/05/04 08:42:42;;;;;;;19.48;8.23;;;;;;;12.30;57.12;101890.00;5072853;28;20031;-72
2022/05/04 08:45:10;;;;;;;;;;;;;;;12.50;56.96;101897.56;5073679;28;20047;-72
2022/05/04 08:47:37;;;;;;;17.50;8.00;;;;;;;12.59;56.16;101892.22;5071979;28;19966;-72
2022/05/04 08:50:07;;;;;;;14.85;7.95;;;;;;;12.69;57.51;101882.44;5073057;28;20032;-72
2022/05/04 08:52:33;;;;;;;15.68;7.78;;;;;;;12.71;53.85;101878.06;5072410;28;20025;-73
2022/05/04 08:54:59;;;;;;;16.92;7.63;;;;;;;12.70;55.78;101881.56;5072005;28;20040;-72
2022/05/04 08:57:24;;;;;;;14.48;8.13;;;;;;;12.74;54.31;101886.72;5072740;28;20041;-72
2022/05/04 08:59:49;;;;;;;14.88;7.55;;;;;;;12.76;54.30;101876.25;5072522;28;20047;-72
2022/05/04 09:02:15;;;;;;;14.32;7.85;;;;;;;12.75;55.37;101861.41;5072211;28;20050;-72
2022/05/04 09:04:42;;;;;;;12.63;7.28;;;;;;;12.94;55.56;101889.00;5072432;28;20033;-72
2022/05/04 09:07:24;;;;;;;13.45;7.65;;;;;;;13.04;56.16;101892.34;5072834;28;20051;-72
2022/05/04 09:09:51;;;;;;;17.30;8.00;;;;;;;13.09;55.71;101886.13;5071858;28;20115;-72
2022/05/04 09:12:17;;;;;;;15.18;7.32;;;;;;;13.04;54.77;101881.88;5072894;28;20020;-72
2022/05/04 09:14:43;;;;;;;13.98;8.13;;;;;;;13.15;54.32;101882.56;5072302;28;20025;-72
2022/05/04 09:17:10;;;;;;;14.13;7.32;;;;;;;13.26;54.04;101875.41;5072070;28;20028;-72
2022/05/04 09:19:35;;;;;;;21.65;8.43;;;;;;;13.47;55.35;101879.38;5072519;28;20025;-72
2022/05/04 09:22:01;;;;;;;11.65;7.40;;;;;;;13.53;52.75;101878.38;5072614;28;20027;-72
2022/05/04 09:24:28;;;;;;;39.13;7.60;;;;;;;13.54;52.60;101877.50;5071789;28;20036;-72
2022/05/04 09:26:56;;;;;;;13.63;7.25;;;;;;;13.55;51.57;101868.75;5072563;28;20361;-73
2022/05/04 09:29:32;;;;;;;16.50;7.47;;;;;;;13.52;53.45;101869.66;5072166;28;20057;-72
2022/05/04 09:31:57;;;;;;;14.50;7.00;;;;;;;13.66;51.77;101873.78;5072512;28;20476;-73
2022/05/04 09:34:33;;;;;;;11.32;7.10;;;;;;;13.69;50.66;101871.94;5072520;28;20039;-72
2022/05/04 09:45:33;;;;;;;20.35;7.68;;;;;;;13.84;50.44;101867.31;5071651;28;19966;-72
2022/05/04 09:47:58;;;;;;;12.70;7.25;;;;;;;13.91;52.02;101863.66;5072418;28;20431;-72
2022/05/04 09:50:26;;;;;;;14.75;8.77;;;;;;;13.99;50.86;101867.81;5072463;28;20029;-72
2022/05/04 09:52:53;;;;;;;11.82;7.47;;;;;;;14.09;53.14;101863.25;5071764;28;20056;-73
2022/05/04 09:55:24;;;;;;;17.50;7.80;;;;;;;14.25;51.91;101856.78;5072301;28;20032;-73
2022/05/04 09:57:50;;;;;;;12.07;7.22;;;;;;;14.34;52.03;101865.34;5071546;28;20799;-73
2022/05/04 10:00:20;;;;;;;13.18;8.05;;;;;;;14.31;49.41;101852.28;5072445;28;20132;-72
2022/05/04 10:02:47;;;;;;;14.95;7.57;;;;;;;14.47;50.40;101848.41;5071970;28;20163;-73
2022/05/04 10:05:14;;;;;;;13.27;7.57;;;;;;;14.54;49.45;101854.41;5073579;28;20020;-72
2022/05/04 10:07:41;;;;;;;11.48;7.30;;;;;;;14.59;50.63;101857.81;5075827;28;20074;-73
2022/05/04 10:10:09;;;;;;;18.65;7.78;;;;;;;14.52;47.93;101863.19;5076188;28;20027;-72
2022/05/04 10:12:39;;;;;;;12.75;7.40;;;;;;;14.60;50.85;101852.50;5074872;28;20353;-73
2022/05/04 10:15:16;;;;;;;12.80;7.38;;;;;;;14.77;51.06;101857.34;5076235;28;20071;-73
2022/05/04 10:17:53;;;;;;;12.68;7.10;;;;;;;14.88;49.41;101839.56;5075464;28;20759;-73
2022/05/04 10:20:21;;;;;;;12.95;7.63;;;;;;;14.99;47.05;101861.16;5075009;28;20024;-73
2022/05/04 10:23:02;;;;;;;13.35;7.82;;;;;;;14.91;48.08;101852.63;5075612;28;20024;-72
2022/05/04 10:25:33;;;;;;;15.18;7.88;;;;;;;15.05;47.97;101848.78;5075877;28;20562;-73
2022/05/04 10:28:10;;;;;;;15.85;7.97;;;;;;;15.29;49.37;101842.00;5075074;28;20112;-72
2022/05/04 10:30:36;;;;;;;11.43;6.85;;;;;;;15.50;48.12;101838.78;5075295;28;20032;-73
2022/05/04 10:33:06;;;;;;;17.83;6.78;;;;;;;15.60;46.66;101848.13;5074981;28;20021;-73
2022/05/04 10:35:38;;;;;;;13.32;6.80;;;;;;;15.66;44.56;101841.81;5075260;28;20483;-73
2022/05/04 10:38:09;;;;;;;15.20;6.78;;;;;;;15.62;45.85;101843.69;5075475;28;20487;-72
2022/05/04 10:40:42;;;;;;;12.50;6.97;;;;;;;15.67;45.45;101825.19;5074419;28;20025;-73
2022/05/04 10:43:09;;;;;;;13.15;6.90;;;;;;;15.90;48.83;101835.88;5075294;28;20021;-73
2022/05/04 10:45:36;;;;;;;13.27;7.20;;;;;;;16.13;45.63;101840.44;5075355;28;20105;-73
2022/05/04 10:48:20;;;;;;;14.05;7.50;;;;;;;16.23;45.42;101841.03;5074750;28;20101;-73
2022/05/04 10:50:50;;;;;;;15.48;7.40;;;;;;;16.28;43.21;101835.63;5074978;28;20075;-73
2022/05/04 10:53:42;;;;;;;12.88;6.93;;;;;;;16.45;46.10;101842.97;5075170;28;20472;-73
2022/05/04 10:56:19;;;;;;;18.67;7.60;;;;;;;16.56;44.20;101835.59;5065493;28;20072;-72
2022/05/04 10:58:49;;;;;;;14.65;7.15;;;;;;;16.54;42.20;101830.38;5075048;28;20027;-73
2022/05/04 11:01:25;;;;;;;14.65;6.50;;;;;;;16.76;43.58;101827.06;5074378;28;20521;-73
2022/05/04 11:03:55;;;;;;;14.82;7.55;;;;;;;16.81;41.84;101823.38;5074705;28;20028;-73
2022/05/04 11:06:26;;;;;;;13.15;7.10;;;;;;;17.05;42.71;101824.31;5075285;28;20104;-73
2022/05/04 11:08:52;;;;;;;11.60;7.00;;;;;;;17.41;42.95;101823.06;5074117;28;20081;-73
2022/05/04 11:11:20;;;;;;;10.98;7.00;;;;;;;17.70;43.72;101821.97;5075006;28;20421;-73
2022/05/04 11:13:45;;;;;;;15.35;8.13;;;;;;;17.69;42.16;101828.16;5074629;28;20049;-73
2022/05/04 11:16:12;;;;;;;14.02;6.93;;;;;;;17.70;41.15;101821.97;5073247;28;20052;-73
2022/05/04 11:18:38;;;;;;;12.25;6.78;;;;;;;17.82;41.40;101818.91;5074539;28;20028;-73
2022/05/04 11:21:06;;;;;;;15.23;7.60;;;;;;;17.81;41.56;101816.31;5074704;28;20095;-73
2022/05/04 11:23:32;;;;;;;13.70;7.43;;;;;;;17.88;42.90;101805.47;5073492;28;20570;-73
2022/05/04 11:25:57;;;;;;;13.68;7.10;;;;;;;17.98;40.08;101816.53;5074788;28;20063;-73
2022/05/04 11:28:23;;;;;;;12.73;7.65;;;;;;;17.95;39.27;101814.00;5074634;28;20126;-73
2022/05/04 11:30:52;;;;;;;15.75;7.95;;;;;;;18.11;40.80;101808.97;5073989;28;20024;-73
2022/05/04 11:33:18;;;;;;;15.38;8.57;;;;;;;18.17;39.97;101801.69;5074643;28;20082;-73
2022/05/04 11:35:44;;;;;;;10.65;7.32;;;;;;;18.36;40.91;101809.72;5074237;28;20032;-73
2022/05/04 11:38:17;;;;;;;10.90;6.68;;;;;;;18.57;39.71;101800.03;5073681;28;20028;-73
2022/05/04 11:40:46;;;;;;;12.25;7.53;;;;;;;19.06;41.32;101800.63;5074099;28;20078;-73
2022/05/04 11:43:22;;;;;;;13.68;8.80;;;;;;;19.59;41.72;101793.88;5073383;28;20056;-73
2022/05/04 11:45:48;;;;;;;15.90;8.00;;;;;;;20.26;39.47;101785.38;5073769;28;20140;-73
2022/05/04 11:48:16;;;;;;;19.05;8.40;;;;;;;21.01;35.46;101794.00;5074134;28;20471;-74
2022/05/04 11:50:42;;;;;;;14.85;8.15;;;;;;;21.78;33.35;101790.78;5073011;28;20595;-73